14G weather

Fremont Airport
Fremont, Ohio, United States

Public forecast

Using degrees Fahrenheit for public forecast. Weather courtesy of forecast.io.

Closest aviation weather report (METAR) to Fremont Airport

Closest report is Carl R Keller Field, 17.2 nm (31.8 km) NE. Retrieved 2020/01/25 16:35 UTC (12 minutes ago):

KPCW 251635Z AUTO 25010KT 9SM BKN013 OVC017 03/01 A2987 RMK AO2

Closest aviation forecast (TAF) to Fremont Airport

Closest forecast is Findlay Airport, 29.9 nm (55.4 km) SW. Retrieved 2020/01/25 12:27 UTC (4 hours ago):

TAF KFDY 251124Z 2512/2612 23007KT P6SM OVC010 TEMPO 2512/2516 2SM -SHRASN OVC006 FM251600 22012KT 4SM -SHSN OVC008 FM260000 23012KT 2SM -SHSN OVC008 FM260300 24012KT 4SM -SHSN OVC003 FM260500 25012KT 4SM BR OVC008